sensor_id;sensor_type;location;lat;lon;timestamp;P1;durP1;ratioP1;P2;durP2;ratioP2
16954;SDS011;8594;52.052;8.354;2023-08-24T00:02:12;10.83;;;5.17;;
16954;SDS011;8594;52.052;8.354;2023-08-24T00:04:39;8.23;;;5.17;;
16954;SDS011;8594;52.052;8.354;2023-08-24T00:07:06;7.73;;;5.17;;
16954;SDS011;8594;52.052;8.354;2023-08-24T00:09:33;13.10;;;5.23;;
16954;SDS011;8594;52.052;8.354;2023-08-24T00:12:01;9.90;;;5.33;;
16954;SDS011;8594;52.052;8.354;2023-08-24T00:14:28;10.10;;;5.27;;
16954;SDS011;8594;52.052;8.354;2023-08-24T00:16:55;12.33;;;4.80;;
16954;SDS011;8594;52.052;8.354;2023-08-24T00:19:22;10.30;;;5.50;;
16954;SDS011;8594;52.052;8.354;2023-08-24T00:21:49;12.27;;;5.47;;
16954;SDS011;8594;52.052;8.354;2023-08-24T00:24:16;9.87;;;5.67;;
16954;SDS011;8594;52.052;8.354;2023-08-24T00:26:43;9.53;;;5.30;;
16954;SDS011;8594;52.052;8.354;2023-08-24T00:29:11;13.30;;;5.80;;
16954;SDS011;8594;52.052;8.354;2023-08-24T00:31:38;13.43;;;5.43;;
16954;SDS011;8594;52.052;8.354;2023-08-24T00:34:04;9.50;;;5.53;;
16954;SDS011;8594;52.052;8.354;2023-08-24T00:36:31;9.30;;;5.93;;
16954;SDS011;8594;52.052;8.354;2023-08-24T00:38:58;10.20;;;5.87;;
16954;SDS011;8594;52.052;8.354;2023-08-24T00:41:25;10.77;;;6.00;;
16954;SDS011;8594;52.052;8.354;2023-08-24T00:43:52;10.70;;;5.33;;
16954;SDS011;8594;52.052;8.354;2023-08-24T00:46:21;11.57;;;6.20;;
16954;SDS011;8594;52.052;8.354;2023-08-24T00:48:51;8.27;;;4.53;;
16954;SDS011;8594;52.052;8.354;2023-08-24T00:51:22;9.17;;;6.10;;
16954;SDS011;8594;52.052;8.354;2023-08-24T00:53:49;11.77;;;6.43;;
16954;SDS011;8594;52.052;8.354;2023-08-24T00:56:17;8.60;;;5.80;;
16954;SDS011;8594;52.052;8.354;2023-08-24T00:58:49;13.47;;;6.07;;
16954;SDS011;8594;52.052;8.354;2023-08-24T01:01:17;12.53;;;6.17;;
16954;SDS011;8594;52.052;8.354;2023-08-24T01:03:45;12.97;;;6.77;;
16954;SDS011;8594;52.052;8.354;2023-08-24T01:06:12;10.57;;;5.87;;
16954;SDS011;8594;52.052;8.354;2023-08-24T01:08:39;11.50;;;6.23;;
16954;SDS011;8594;52.052;8.354;2023-08-24T01:11:08;10.50;;;5.97;;
16954;SDS011;8594;52.052;8.354;2023-08-24T01:13:49;15.57;;;6.40;;
16954;SDS011;8594;52.052;8.354;2023-08-24T01:16:27;14.73;;;6.37;;
16954;SDS011;8594;52.052;8.354;2023-08-24T01:18:59;12.80;;;6.13;;
16954;SDS011;8594;52.052;8.354;2023-08-24T01:21:31;8.97;;;6.07;;
16954;SDS011;8594;52.052;8.354;2023-08-24T01:24:01;12.53;;;6.10;;
16954;SDS011;8594;52.052;8.354;2023-08-24T01:26:39;7.23;;;5.43;;
16954;SDS011;8594;52.052;8.354;2023-08-24T01:29:07;9.70;;;5.80;;
16954;SDS011;8594;52.052;8.354;2023-08-24T01:31:35;12.83;;;5.83;;
16954;SDS011;8594;52.052;8.354;2023-08-24T01:34:02;9.30;;;5.70;;
16954;SDS011;8594;52.052;8.354;2023-08-24T01:36:29;8.60;;;5.80;;
16954;SDS011;8594;52.052;8.354;2023-08-24T01:38:58;10.33;;;6.27;;
16954;SDS011;8594;52.052;8.354;2023-08-24T01:41:37;11.80;;;6.70;;
16954;SDS011;8594;52.052;8.354;2023-08-24T01:44:09;12.27;;;6.43;;
16954;SDS011;8594;52.052;8.354;2023-08-24T01:46:43;9.07;;;6.33;;
16954;SDS011;8594;52.052;8.354;2023-08-24T01:49:14;13.57;;;6.37;;
16954;SDS011;8594;52.052;8.354;2023-08-24T01:51:44;10.87;;;7.20;;
16954;SDS011;8594;52.052;8.354;2023-08-24T01:54:12;12.33;;;6.80;;
16954;SDS011;8594;52.052;8.354;2023-08-24T01:56:40;11.43;;;6.70;;
16954;SDS011;8594;52.052;8.354;2023-08-24T01:59:07;11.40;;;6.47;;
16954;SDS011;8594;52.052;8.354;2023-08-24T02:01:35;10.37;;;5.90;;
16954;SDS011;8594;52.052;8.354;2023-08-24T02:04:02;12.57;;;6.80;;
16954;SDS011;8594;52.052;8.354;2023-08-24T02:06:29;10.43;;;6.27;;
16954;SDS011;8594;52.052;8.354;2023-08-24T02:08:55;13.47;;;6.90;;
16954;SDS011;8594;52.052;8.354;2023-08-24T02:11:22;11.20;;;6.47;;
16954;SDS011;8594;52.052;8.354;2023-08-24T02:13:49;11.07;;;6.50;;
16954;SDS011;8594;52.052;8.354;2023-08-24T02:16:17;10.07;;;6.43;;
16954;SDS011;8594;52.052;8.354;2023-08-24T02:18:44;14.47;;;7.10;;
16954;SDS011;8594;52.052;8.354;2023-08-24T02:21:11;12.93;;;7.10;;
16954;SDS011;8594;52.052;8.354;2023-08-24T02:23:39;13.60;;;7.50;;
16954;SDS011;8594;52.052;8.354;2023-08-24T02:26:06;12.50;;;7.17;;
16954;SDS011;8594;52.052;8.354;2023-08-24T02:28:36;8.83;;;6.20;;
16954;SDS011;8594;52.052;8.354;2023-08-24T02:31:03;15.13;;;7.00;;
16954;SDS011;8594;52.052;8.354;2023-08-24T02:33:32;18.77;;;7.27;;
16954;SDS011;8594;52.052;8.354;2023-08-24T02:35:59;15.83;;;7.40;;
16954;SDS011;8594;52.052;8.354;2023-08-24T02:38:26;11.07;;;6.80;;
16954;SDS011;8594;52.052;8.354;2023-08-24T02:41:00;15.73;;;7.10;;
16954;SDS011;8594;52.052;8.354;2023-08-24T02:43:28;11.27;;;6.93;;
16954;SDS011;8594;52.052;8.354;2023-08-24T02:45:59;10.80;;;6.57;;
16954;SDS011;8594;52.052;8.354;2023-08-24T02:48:28;14.10;;;7.07;;
16954;SDS011;8594;52.052;8.354;2023-08-24T02:50:57;11.20;;;6.43;;
16954;SDS011;8594;52.052;8.354;2023-08-24T02:53:24;11.50;;;6.83;;
16954;SDS011;8594;52.052;8.354;2023-08-24T02:55:52;17.87;;;7.23;;
16954;SDS011;8594;52.052;8.354;2023-08-24T02:58:19;12.73;;;6.90;;
16954;SDS011;8594;52.052;8.354;2023-08-24T03:00:46;13.57;;;7.07;;
16954;SDS011;8594;52.052;8.354;2023-08-24T03:03:13;15.00;;;6.43;;
16954;SDS011;8594;52.052;8.354;2023-08-24T03:05:40;10.87;;;5.77;;
16954;SDS011;8594;52.052;8.354;2023-08-24T03:08:18;13.47;;;6.50;;
16954;SDS011;8594;52.052;8.354;2023-08-24T03:10:45;11.43;;;6.37;;
16954;SDS011;8594;52.052;8.354;2023-08-24T03:13:13;10.67;;;6.60;;
16954;SDS011;8594;52.052;8.354;2023-08-24T03:15:40;13.20;;;5.83;;
16954;SDS011;8594;52.052;8.354;2023-08-24T03:18:07;12.17;;;6.90;;
16954;SDS011;8594;52.052;8.354;2023-08-24T03:20:36;12.53;;;7.13;;
16954;SDS011;8594;52.052;8.354;2023-08-24T03:23:03;11.43;;;7.13;;
16954;SDS011;8594;52.052;8.354;2023-08-24T03:25:34;12.10;;;6.63;;
16954;SDS011;8594;52.052;8.354;2023-08-24T03:28:03;12.47;;;7.43;;
16954;SDS011;8594;52.052;8.354;2023-08-24T03:30:31;9.17;;;6.90;;
16954;SDS011;8594;52.052;8.354;2023-08-24T03:32:59;10.20;;;6.27;;
16954;SDS011;8594;52.052;8.354;2023-08-24T03:35:27;11.60;;;6.30;;
16954;SDS011;8594;52.052;8.354;2023-08-24T03:37:55;10.40;;;6.63;;
16954;SDS011;8594;52.052;8.354;2023-08-24T03:40:21;9.83;;;6.47;;
16954;SDS011;8594;52.052;8.354;2023-08-24T03:42:50;12.47;;;6.73;;
16954;SDS011;8594;52.052;8.354;2023-08-24T03:45:18;13.20;;;6.43;;
16954;SDS011;8594;52.052;8.354;2023-08-24T03:47:45;12.73;;;7.43;;
16954;SDS011;8594;52.052;8.354;2023-08-24T03:50:12;14.73;;;7.60;;
16954;SDS011;8594;52.052;8.354;2023-08-24T03:52:38;9.57;;;6.03;;
16954;SDS011;8594;52.052;8.354;2023-08-24T03:55:06;14.33;;;6.73;;
16954;SDS011;8594;52.052;8.354;2023-08-24T03:57:33;10.87;;;5.70;;
16954;SDS011;8594;52.052;8.354;2023-08-24T04:00:02;9.53;;;5.60;;
16954;SDS011;8594;52.052;8.354;2023-08-24T04:02:31;12.33;;;5.10;;
16954;SDS011;8594;52.052;8.354;2023-08-24T04:04:58;9.17;;;5.57;;
16954;SDS011;8594;52.052;8.354;2023-08-24T04:07:24;9.63;;;6.60;;
16954;SDS011;8594;52.052;8.354;2023-08-24T04:09:51;11.10;;;6.77;;
16954;SDS011;8594;52.052;8.354;2023-08-24T04:12:18;11.20;;;6.67;;
16954;SDS011;8594;52.052;8.354;2023-08-24T04:14:45;8.67;;;5.80;;
16954;SDS011;8594;52.052;8.354;2023-08-24T04:17:13;13.07;;;5.90;;
16954;SDS011;8594;52.052;8.354;2023-08-24T04:19:40;9.20;;;5.70;;
16954;SDS011;8594;52.052;8.354;2023-08-24T04:22:07;13.60;;;5.23;;
16954;SDS011;8594;52.052;8.354;2023-08-24T04:24:34;7.87;;;4.63;;
16954;SDS011;8594;52.052;8.354;2023-08-24T04:27:00;10.90;;;5.50;;
16954;SDS011;8594;52.052;8.354;2023-08-24T04:29:27;17.13;;;5.73;;
16954;SDS011;8594;52.052;8.354;2023-08-24T04:31:54;8.33;;;5.33;;
16954;SDS011;8594;52.052;8.354;2023-08-24T04:34:22;9.13;;;5.40;;
16954;SDS011;8594;52.052;8.354;2023-08-24T04:36:49;10.03;;;5.70;;
16954;SDS011;8594;52.052;8.354;2023-08-24T04:39:16;14.63;;;6.70;;
16954;SDS011;8594;52.052;8.354;2023-08-24T04:41:43;12.50;;;6.43;;
16954;SDS011;8594;52.052;8.354;2023-08-24T04:44:10;12.33;;;5.30;;
16954;SDS011;8594;52.052;8.354;2023-08-24T04:46:37;9.90;;;5.73;;
16954;SDS011;8594;52.052;8.354;2023-08-24T04:49:04;10.70;;;7.00;;
16954;SDS011;8594;52.052;8.354;2023-08-24T04:51:33;14.63;;;7.30;;
16954;SDS011;8594;52.052;8.354;2023-08-24T04:53:59;12.53;;;8.03;;
16954;SDS011;8594;52.052;8.354;2023-08-24T04:56:27;18.83;;;8.87;;
16954;SDS011;8594;52.052;8.354;2023-08-24T04:58:54;17.80;;;8.17;;
16954;SDS011;8594;52.052;8.354;2023-08-24T05:01:22;14.50;;;8.93;;
16954;SDS011;8594;52.052;8.354;2023-08-24T05:03:50;22.93;;;9.90;;
16954;SDS011;8594;52.052;8.354;2023-08-24T05:06:17;13.70;;;8.77;;
16954;SDS011;8594;52.052;8.354;2023-08-24T05:08:45;11.20;;;6.90;;
16954;SDS011;8594;52.052;8.354;2023-08-24T05:11:12;14.83;;;8.10;;
16954;SDS011;8594;52.052;8.354;2023-08-24T05:13:43;12.83;;;8.47;;
16954;SDS011;8594;52.052;8.354;2023-08-24T05:16:10;16.17;;;8.53;;
16954;SDS011;8594;52.052;8.354;2023-08-24T05:18:38;18.90;;;9.47;;
16954;SDS011;8594;52.052;8.354;2023-08-24T05:21:05;18.50;;;9.70;;
16954;SDS011;8594;52.052;8.354;2023-08-24T05:23:32;17.47;;;9.67;;
16954;SDS011;8594;52.052;8.354;2023-08-24T05:26:02;16.70;;;8.30;;
16954;SDS011;8594;52.052;8.354;2023-08-24T05:28:30;14.10;;;8.43;;
16954;SDS011;8594;52.052;8.354;2023-08-24T05:30:57;13.47;;;8.37;;
16954;SDS011;8594;52.052;8.354;2023-08-24T05:33:25;17.50;;;8.47;;
16954;SDS011;8594;52.052;8.354;2023-08-24T05:35:56;13.93;;;9.00;;
16954;SDS011;8594;52.052;8.354;2023-08-24T05:38:23;14.77;;;9.13;;
16954;SDS011;8594;52.052;8.354;2023-08-24T05:40:50;12.30;;;8.87;;
16954;SDS011;8594;52.052;8.354;2023-08-24T05:43:20;16.57;;;10.90;;
16954;SDS011;8594;52.052;8.354;2023-08-24T05:45:47;13.17;;;9.23;;
16954;SDS011;8594;52.052;8.354;2023-08-24T05:48:15;13.07;;;7.97;;
16954;SDS011;8594;52.052;8.354;2023-08-24T05:50:42;16.63;;;8.73;;
16954;SDS011;8594;52.052;8.354;2023-08-24T05:53:10;11.07;;;7.77;;
16954;SDS011;8594;52.052;8.354;2023-08-24T05:55:38;12.60;;;8.70;;
16954;SDS011;8594;52.052;8.354;2023-08-24T05:58:05;12.50;;;8.67;;
16954;SDS011;8594;52.052;8.354;2023-08-24T06:00:33;14.40;;;8.67;;
16954;SDS011;8594;52.052;8.354;2023-08-24T06:03:00;14.63;;;9.60;;
16954;SDS011;8594;52.052;8.354;2023-08-24T06:05:27;13.37;;;9.10;;
16954;SDS011;8594;52.052;8.354;2023-08-24T06:07:55;16.47;;;9.10;;
16954;SDS011;8594;52.052;8.354;2023-08-24T06:10:23;12.93;;;8.67;;
16954;SDS011;8594;52.052;8.354;2023-08-24T06:12:51;18.47;;;11.60;;
16954;SDS011;8594;52.052;8.354;2023-08-24T06:15:18;15.33;;;11.23;;
16954;SDS011;8594;52.052;8.354;2023-08-24T06:17:49;14.20;;;10.57;;
16954;SDS011;8594;52.052;8.354;2023-08-24T06:20:17;18.07;;;11.20;;
16954;SDS011;8594;52.052;8.354;2023-08-24T06:22:43;17.23;;;13.23;;
16954;SDS011;8594;52.052;8.354;2023-08-24T06:25:10;17.87;;;12.67;;
16954;SDS011;8594;52.052;8.354;2023-08-24T06:27:37;20.20;;;13.73;;
16954;SDS011;8594;52.052;8.354;2023-08-24T06:30:05;18.40;;;12.50;;
16954;SDS011;8594;52.052;8.354;2023-08-24T06:32:33;21.50;;;13.10;;
16954;SDS011;8594;52.052;8.354;2023-08-24T06:35:01;19.23;;;13.23;;
16954;SDS011;8594;52.052;8.354;2023-08-24T06:37:28;19.87;;;13.30;;
16954;SDS011;8594;52.052;8.354;2023-08-24T06:39:55;22.87;;;14.10;;
16954;SDS011;8594;52.052;8.354;2023-08-24T06:42:22;25.93;;;16.27;;
16954;SDS011;8594;52.052;8.354;2023-08-24T06:44:49;26.10;;;16.73;;
16954;SDS011;8594;52.052;8.354;2023-08-24T06:47:15;25.60;;;17.80;;
16954;SDS011;8594;52.052;8.354;2023-08-24T06:49:43;23.23;;;16.43;;
16954;SDS011;8594;52.052;8.354;2023-08-24T06:52:11;25.47;;;15.93;;
16954;SDS011;8594;52.052;8.354;2023-08-24T06:54:38;26.33;;;16.27;;
16954;SDS011;8594;52.052;8.354;2023-08-24T06:57:05;25.63;;;15.53;;
16954;SDS011;8594;52.052;8.354;2023-08-24T06:59:32;29.40;;;15.10;;
16954;SDS011;8594;52.052;8.354;2023-08-24T07:01:59;21.47;;;15.20;;
16954;SDS011;8594;52.052;8.354;2023-08-24T07:04:25;21.17;;;13.60;;
16954;SDS011;8594;52.052;8.354;2023-08-24T07:06:53;26.03;;;14.73;;
16954;SDS011;8594;52.052;8.354;2023-08-24T07:09:21;22.40;;;15.03;;
16954;SDS011;8594;52.052;8.354;2023-08-24T07:11:48;36.40;;;14.67;;
16954;SDS011;8594;52.052;8.354;2023-08-24T07:14:15;16.23;;;11.00;;
16954;SDS011;8594;52.052;8.354;2023-08-24T07:16:42;19.60;;;11.07;;
16954;SDS011;8594;52.052;8.354;2023-08-24T07:19:08;14.27;;;10.10;;
16954;SDS011;8594;52.052;8.354;2023-08-24T07:21:36;18.23;;;10.23;;
16954;SDS011;8594;52.052;8.354;2023-08-24T07:24:03;25.37;;;10.13;;
16954;SDS011;8594;52.052;8.354;2023-08-24T07:26:33;21.53;;;10.63;;
16954;SDS011;8594;52.052;8.354;2023-08-24T07:29:00;22.10;;;10.40;;
16954;SDS011;8594;52.052;8.354;2023-08-24T07:31:27;12.67;;;8.63;;
16954;SDS011;8594;52.052;8.354;2023-08-24T07:33:54;20.47;;;9.63;;
16954;SDS011;8594;52.052;8.354;2023-08-24T07:36:20;13.03;;;9.10;;
16954;SDS011;8594;52.052;8.354;2023-08-24T07:38:47;14.73;;;8.73;;
16954;SDS011;8594;52.052;8.354;2023-08-24T07:41:14;14.20;;;8.17;;
16954;SDS011;8594;52.052;8.354;2023-08-24T07:43:44;11.87;;;8.13;;
16954;SDS011;8594;52.052;8.354;2023-08-24T07:46:11;12.87;;;8.80;;
16954;SDS011;8594;52.052;8.354;2023-08-24T07:48:38;14.80;;;8.80;;
16954;SDS011;8594;52.052;8.354;2023-08-24T07:51:06;14.10;;;8.70;;
16954;SDS011;8594;52.052;8.354;2023-08-24T07:53:33;10.03;;;6.43;;
16954;SDS011;8594;52.052;8.354;2023-08-24T07:56:00;14.90;;;6.60;;
16954;SDS011;8594;52.052;8.354;2023-08-24T07:58:27;8.87;;;5.83;;
16954;SDS011;8594;52.052;8.354;2023-08-24T08:00:57;7.73;;;6.27;;
16954;SDS011;8594;52.052;8.354;2023-08-24T08:03:25;18.27;;;6.83;;
16954;SDS011;8594;52.052;8.354;2023-08-24T08:05:52;10.30;;;6.07;;
16954;SDS011;8594;52.052;8.354;2023-08-24T08:08:19;9.83;;;6.77;;
16954;SDS011;8594;52.052;8.354;2023-08-24T08:10:46;12.43;;;6.70;;
16954;SDS011;8594;52.052;8.354;2023-08-24T08:13:13;15.20;;;6.93;;
16954;SDS011;8594;52.052;8.354;2023-08-24T08:15:40;13.07;;;6.50;;
16954;SDS011;8594;52.052;8.354;2023-08-24T08:18:08;11.43;;;6.83;;
16954;SDS011;8594;52.052;8.354;2023-08-24T08:20:35;11.17;;;6.37;;
16954;SDS011;8594;52.052;8.354;2023-08-24T08:23:02;9.83;;;6.07;;
16954;SDS011;8594;52.052;8.354;2023-08-24T08:25:29;9.20;;;5.57;;
16954;SDS011;8594;52.052;8.354;2023-08-24T08:27:56;8.70;;;5.57;;
16954;SDS011;8594;52.052;8.354;2023-08-24T08:30:23;10.33;;;5.93;;
16954;SDS011;8594;52.052;8.354;2023-08-24T08:32:50;12.60;;;5.40;;
16954;SDS011;8594;52.052;8.354;2023-08-24T08:35:18;11.60;;;6.17;;
16954;SDS011;8594;52.052;8.354;2023-08-24T08:37:45;11.00;;;7.63;;
16954;SDS011;8594;52.052;8.354;2023-08-24T08:40:14;10.57;;;5.53;;
16954;SDS011;8594;52.052;8.354;2023-08-24T08:42:43;9.63;;;7.00;;
16954;SDS011;8594;52.052;8.354;2023-08-24T08:45:10;12.30;;;6.80;;
16954;SDS011;8594;52.052;8.354;2023-08-24T08:47:38;10.67;;;7.17;;
16954;SDS011;8594;52.052;8.354;2023-08-24T08:50:06;10.80;;;6.70;;
16954;SDS011;8594;52.052;8.354;2023-08-24T08:52:35;11.23;;;7.00;;
16954;SDS011;8594;52.052;8.354;2023-08-24T08:55:02;11.27;;;6.87;;
16954;SDS011;8594;52.052;8.354;2023-08-24T08:57:31;11.53;;;7.00;;
16954;SDS011;8594;52.052;8.354;2023-08-24T09:00:00;9.33;;;5.83;;
16954;SDS011;8594;52.052;8.354;2023-08-24T09:02:27;8.43;;;6.20;;
16954;SDS011;8594;52.052;8.354;2023-08-24T09:04:57;9.83;;;4.90;;
16954;SDS011;8594;52.052;8.354;2023-08-24T09:07:24;8.23;;;5.13;;
16954;SDS011;8594;52.052;8.354;2023-08-24T09:09:52;7.20;;;5.10;;
16954;SDS011;8594;52.052;8.354;2023-08-24T09:12:19;8.87;;;4.97;;
16954;SDS011;8594;52.052;8.354;2023-08-24T09:14:46;7.33;;;4.33;;
16954;SDS011;8594;52.052;8.354;2023-08-24T09:17:19;6.17;;;3.93;;
16954;SDS011;8594;52.052;8.354;2023-08-24T09:19:47;5.87;;;3.77;;
16954;SDS011;8594;52.052;8.354;2023-08-24T09:22:17;6.73;;;3.40;;
16954;SDS011;8594;52.052;8.354;2023-08-24T09:24:44;8.97;;;4.03;;
16954;SDS011;8594;52.052;8.354;2023-08-24T09:27:15;7.13;;;4.57;;
16954;SDS011;8594;52.052;8.354;2023-08-24T09:29:47;8.20;;;4.10;;
16954;SDS011;8594;52.052;8.354;2023-08-24T09:32:15;7.50;;;4.07;;
16954;SDS011;8594;52.052;8.354;2023-08-24T09:34:48;8.50;;;4.20;;
16954;SDS011;8594;52.052;8.354;2023-08-24T09:37:15;7.87;;;3.67;;
16954;SDS011;8594;52.052;8.354;2023-08-24T09:39:43;8.90;;;3.63;;
16954;SDS011;8594;52.052;8.354;2023-08-24T09:42:11;6.23;;;3.17;;
16954;SDS011;8594;52.052;8.354;2023-08-24T09:44:41;6.53;;;3.03;;
16954;SDS011;8594;52.052;8.354;2023-08-24T09:47:10;5.27;;;2.87;;
16954;SDS011;8594;52.052;8.354;2023-08-24T09:49:38;8.30;;;3.10;;
16954;SDS011;8594;52.052;8.354;2023-08-24T09:52:06;7.00;;;3.20;;
16954;SDS011;8594;52.052;8.354;2023-08-24T09:54:36;7.37;;;3.17;;
16954;SDS011;8594;52.052;8.354;2023-08-24T09:57:05;8.07;;;3.40;;
16954;SDS011;8594;52.052;8.354;2023-08-24T09:59:34;8.23;;;3.10;;
16954;SDS011;8594;52.052;8.354;2023-08-24T10:02:10;6.20;;;3.30;;
16954;SDS011;8594;52.052;8.354;2023-08-24T10:04:43;7.00;;;3.37;;
16954;SDS011;8594;52.052;8.354;2023-08-24T10:07:13;6.13;;;3.50;;
16954;SDS011;8594;52.052;8.354;2023-08-24T10:09:50;9.63;;;3.40;;
16954;SDS011;8594;52.052;8.354;2023-08-24T10:12:26;8.90;;;3.70;;
16954;SDS011;8594;52.052;8.354;2023-08-24T10:14:59;8.30;;;3.60;;
16954;SDS011;8594;52.052;8.354;2023-08-24T10:17:29;6.63;;;3.40;;
16954;SDS011;8594;52.052;8.354;2023-08-24T10:19:59;7.90;;;3.40;;
16954;SDS011;8594;52.052;8.354;2023-08-24T10:22:30;8.40;;;3.10;;
16954;SDS011;8594;52.052;8.354;2023-08-24T10:24:59;9.77;;;3.87;;
16954;SDS011;8594;52.052;8.354;2023-08-24T10:27:27;5.78;;;3.20;;
16954;SDS011;8594;52.052;8.354;2023-08-24T10:29:55;7.50;;;3.40;;
16954;SDS011;8594;52.052;8.354;2023-08-24T10:32:24;7.90;;;3.23;;
16954;SDS011;8594;52.052;8.354;2023-08-24T10:34:54;5.13;;;3.27;;
16954;SDS011;8594;52.052;8.354;2023-08-24T10:37:24;7.60;;;3.58;;
16954;SDS011;8594;52.052;8.354;2023-08-24T10:39:53;9.50;;;3.80;;
16954;SDS011;8594;52.052;8.354;2023-08-24T10:42:20;5.03;;;2.87;;
16954;SDS011;8594;52.052;8.354;2023-08-24T10:44:47;9.17;;;3.43;;
16954;SDS011;8594;52.052;8.354;2023-08-24T10:47:16;7.57;;;3.53;;
16954;SDS011;8594;52.052;8.354;2023-08-24T10:49:58;7.23;;;3.40;;
16954;SDS011;8594;52.052;8.354;2023-08-24T10:52:30;6.65;;;3.30;;
16954;SDS011;8594;52.052;8.354;2023-08-24T10:55:00;8.97;;;3.20;;
16954;SDS011;8594;52.052;8.354;2023-08-24T10:57:34;7.50;;;3.27;;
16954;SDS011;8594;52.052;8.354;2023-08-24T11:00:03;4.88;;;3.33;;
16954;SDS011;8594;52.052;8.354;2023-08-24T11:02:43;5.90;;;3.30;;
16954;SDS011;8594;52.052;8.354;2023-08-24T11:05:16;6.72;;;3.70;;
16954;SDS011;8594;52.052;8.354;2023-08-24T11:07:55;8.00;;;3.90;;
16954;SDS011;8594;52.052;8.354;2023-08-24T11:10:25;9.05;;;3.70;;
16954;SDS011;8594;52.052;8.354;2023-08-24T11:13:10;7.95;;;5.20;;
16954;SDS011;8594;52.052;8.354;2023-08-24T11:15:39;8.30;;;5.85;;
16954;SDS011;8594;52.052;8.354;2023-08-24T11:18:19;11.00;;;5.80;;
16954;SDS011;8594;52.052;8.354;2023-08-24T11:20:51;12.67;;;5.00;;
16954;SDS011;8594;52.052;8.354;2023-08-24T11:23:20;7.93;;;4.30;;
16954;SDS011;8594;52.052;8.354;2023-08-24T11:25:50;6.53;;;4.33;;
16954;SDS011;8594;52.052;8.354;2023-08-24T11:28:21;7.60;;;4.10;;
16954;SDS011;8594;52.052;8.354;2023-08-24T11:30:50;6.50;;;4.17;;
16954;SDS011;8594;52.052;8.354;2023-08-24T11:33:26;7.30;;;4.37;;
16954;SDS011;8594;52.052;8.354;2023-08-24T11:35:56;7.13;;;3.90;;
16954;SDS011;8594;52.052;8.354;2023-08-24T11:38:24;6.87;;;4.50;;
16954;SDS011;8594;52.052;8.354;2023-08-24T11:41:09;5.83;;;3.90;;
16954;SDS011;8594;52.052;8.354;2023-08-24T11:43:38;6.43;;;4.37;;
16954;SDS011;8594;52.052;8.354;2023-08-24T11:46:05;8.03;;;4.90;;
16954;SDS011;8594;52.052;8.354;2023-08-24T11:48:32;7.37;;;4.37;;
16954;SDS011;8594;52.052;8.354;2023-08-24T11:51:00;10.10;;;4.13;;
16954;SDS011;8594;52.052;8.354;2023-08-24T11:53:27;8.80;;;4.40;;
16954;SDS011;8594;52.052;8.354;2023-08-24T11:55:57;7.00;;;4.67;;
16954;SDS011;8594;52.052;8.354;2023-08-24T11:58:27;7.17;;;4.10;;
16954;SDS011;8594;52.052;8.354;2023-08-24T12:00:54;6.20;;;4.00;;
16954;SDS011;8594;52.052;8.354;2023-08-24T12:03:21;7.33;;;3.50;;
16954;SDS011;8594;52.052;8.354;2023-08-24T12:05:48;6.27;;;3.50;;
16954;SDS011;8594;52.052;8.354;2023-08-24T12:08:16;6.00;;;3.10;;
16954;SDS011;8594;52.052;8.354;2023-08-24T12:10:43;6.38;;;3.35;;
16954;SDS011;8594;52.052;8.354;2023-08-24T12:13:11;6.40;;;3.40;;
16954;SDS011;8594;52.052;8.354;2023-08-24T12:15:40;7.37;;;3.57;;
16954;SDS011;8594;52.052;8.354;2023-08-24T12:18:08;6.60;;;4.00;;
16954;SDS011;8594;52.052;8.354;2023-08-24T12:20:36;5.20;;;3.13;;
16954;SDS011;8594;52.052;8.354;2023-08-24T12:23:05;7.03;;;3.23;;
16954;SDS011;8594;52.052;8.354;2023-08-24T12:25:37;7.07;;;2.97;;
16954;SDS011;8594;52.052;8.354;2023-08-24T12:28:08;5.37;;;2.60;;
16954;SDS011;8594;52.052;8.354;2023-08-24T12:30:46;3.58;;;2.40;;
16954;SDS011;8594;52.052;8.354;2023-08-24T12:33:22;5.10;;;2.70;;
16954;SDS011;8594;52.052;8.354;2023-08-24T12:35:53;4.13;;;2.33;;
16954;SDS011;8594;52.052;8.354;2023-08-24T12:38:21;5.47;;;2.70;;
16954;SDS011;8594;52.052;8.354;2023-08-24T12:40:51;5.97;;;2.37;;
16954;SDS011;8594;52.052;8.354;2023-08-24T12:43:18;4.40;;;2.58;;
16954;SDS011;8594;52.052;8.354;2023-08-24T12:45:45;3.70;;;2.17;;
16954;SDS011;8594;52.052;8.354;2023-08-24T12:48:12;4.70;;;2.33;;
16954;SDS011;8594;52.052;8.354;2023-08-24T12:50:39;6.85;;;2.40;;
16954;SDS011;8594;52.052;8.354;2023-08-24T12:53:06;3.23;;;2.27;;
16954;SDS011;8594;52.052;8.354;2023-08-24T12:55:33;7.23;;;2.20;;
16954;SDS011;8594;52.052;8.354;2023-08-24T12:58:04;3.77;;;2.50;;
16954;SDS011;8594;52.052;8.354;2023-08-24T13:00:31;4.37;;;2.70;;
16954;SDS011;8594;52.052;8.354;2023-08-24T13:02:58;4.43;;;2.63;;
16954;SDS011;8594;52.052;8.354;2023-08-24T13:05:25;8.18;;;2.90;;
16954;SDS011;8594;52.052;8.354;2023-08-24T13:07:52;3.87;;;2.53;;
16954;SDS011;8594;52.052;8.354;2023-08-24T13:10:20;4.53;;;2.70;;
16954;SDS011;8594;52.052;8.354;2023-08-24T13:12:47;4.38;;;2.53;;
16954;SDS011;8594;52.052;8.354;2023-08-24T13:15:15;5.20;;;2.50;;
16954;SDS011;8594;52.052;8.354;2023-08-24T13:17:42;3.65;;;2.20;;
16954;SDS011;8594;52.052;8.354;2023-08-24T13:20:09;5.40;;;3.10;;
16954;SDS011;8594;52.052;8.354;2023-08-24T13:22:36;4.30;;;2.90;;
16954;SDS011;8594;52.052;8.354;2023-08-24T13:25:03;4.33;;;2.40;;
16954;SDS011;8594;52.052;8.354;2023-08-24T13:27:32;4.45;;;2.40;;
16954;SDS011;8594;52.052;8.354;2023-08-24T13:30:02;6.03;;;2.80;;
16954;SDS011;8594;52.052;8.354;2023-08-24T13:32:31;4.80;;;2.87;;
16954;SDS011;8594;52.052;8.354;2023-08-24T13:35:00;4.18;;;2.33;;
16954;SDS011;8594;52.052;8.354;2023-08-24T13:37:27;4.45;;;2.83;;
16954;SDS011;8594;52.052;8.354;2023-08-24T13:39:53;6.03;;;2.50;;
16954;SDS011;8594;52.052;8.354;2023-08-24T13:42:20;5.63;;;2.67;;
16954;SDS011;8594;52.052;8.354;2023-08-24T13:44:47;5.82;;;2.65;;
16954;SDS011;8594;52.052;8.354;2023-08-24T13:47:15;6.05;;;2.70;;
16954;SDS011;8594;52.052;8.354;2023-08-24T13:49:43;5.30;;;2.97;;
16954;SDS011;8594;52.052;8.354;2023-08-24T13:52:10;6.70;;;3.10;;
16954;SDS011;8594;52.052;8.354;2023-08-24T13:54:37;5.33;;;2.67;;
16954;SDS011;8594;52.052;8.354;2023-08-24T13:57:04;5.67;;;2.87;;
16954;SDS011;8594;52.052;8.354;2023-08-24T13:59:31;10.90;;;2.60;;
16954;SDS011;8594;52.052;8.354;2023-08-24T14:01:58;8.27;;;3.28;;
16954;SDS011;8594;52.052;8.354;2023-08-24T14:04:26;6.82;;;2.67;;
16954;SDS011;8594;52.052;8.354;2023-08-24T14:06:54;5.47;;;3.00;;
16954;SDS011;8594;52.052;8.354;2023-08-24T14:09:21;5.07;;;2.90;;
16954;SDS011;8594;52.052;8.354;2023-08-24T14:11:48;8.23;;;2.83;;
16954;SDS011;8594;52.052;8.354;2023-08-24T14:14:15;9.05;;;3.47;;
16954;SDS011;8594;52.052;8.354;2023-08-24T14:16:42;8.68;;;3.00;;
16954;SDS011;8594;52.052;8.354;2023-08-24T14:19:09;7.13;;;3.00;;
16954;SDS011;8594;52.052;8.354;2023-08-24T14:21:36;4.53;;;2.70;;
16954;SDS011;8594;52.052;8.354;2023-08-24T14:24:05;5.75;;;3.08;;
16954;SDS011;8594;52.052;8.354;2023-08-24T14:26:32;6.23;;;2.90;;
16954;SDS011;8594;52.052;8.354;2023-08-24T14:28:58;5.78;;;2.67;;
16954;SDS011;8594;52.052;8.354;2023-08-24T14:31:26;6.65;;;3.10;;
16954;SDS011;8594;52.052;8.354;2023-08-24T14:33:55;7.07;;;3.17;;
16954;SDS011;8594;52.052;8.354;2023-08-24T14:36:22;5.67;;;3.37;;
16954;SDS011;8594;52.052;8.354;2023-08-24T14:38:50;7.07;;;3.00;;
16954;SDS011;8594;52.052;8.354;2023-08-24T14:41:19;5.97;;;3.27;;
16954;SDS011;8594;52.052;8.354;2023-08-24T14:43:46;10.55;;;3.33;;
16954;SDS011;8594;52.052;8.354;2023-08-24T14:46:13;8.52;;;3.95;;
16954;SDS011;8594;52.052;8.354;2023-08-24T14:48:40;8.55;;;3.25;;
16954;SDS011;8594;52.052;8.354;2023-08-24T14:51:07;9.15;;;3.22;;
16954;SDS011;8594;52.052;8.354;2023-08-24T14:53:34;6.27;;;3.10;;
16954;SDS011;8594;52.052;8.354;2023-08-24T14:56:03;10.23;;;3.33;;
16954;SDS011;8594;52.052;8.354;2023-08-24T14:58:31;6.87;;;3.47;;
16954;SDS011;8594;52.052;8.354;2023-08-24T15:00:59;6.82;;;3.30;;